Time;durP1;ratioP1;P1;durP2;ratioP2;P2;SDS_P1;SDS_P2;PMS_P1;PMS_P2;Temp;Humidity;BMP_temperature;BMP_pressure;BME280_temperature;BME280_humidity;BME280_pressure;Samples;Min_cycle;Max_cycle;Signal;HPM_P1;HPM_P2
2022/02/22 00:01:42;;;;;;;;;;;230.90;2252.80;;;;;;5033074;28;20041;-81
2022/02/22 00:04:08;;;;;;;11.07;5.05;;;230.80;2252.80;;;;;;5033099;28;20375;-82
2022/02/22 00:06:35;;;;;;;13.07;5.25;;;230.70;2252.80;;;;;;5032976;28;20043;-83
2022/02/22 00:09:01;;;;;;;16.60;6.93;;;230.70;2252.80;;;;;;5032354;28;20075;-83
2022/02/22 00:11:28;;;;;;;16.15;6.43;;;230.90;2252.80;;;;;;5033195;28;20025;-84
2022/02/22 00:13:54;;;;;;;12.40;5.70;;;230.80;2252.80;;;;;;5031819;28;20056;-83
2022/02/22 00:16:20;;;;;;;9.43;4.40;;;230.70;2252.80;;;;;;5026412;28;20064;-85
2022/02/22 00:18:45;;;;;;;;;;;230.70;2252.80;;;;;;5032721;28;20112;-83
2022/02/22 00:21:12;;;;;;;14.73;4.10;;;230.70;2252.80;;;;;;5032038;28;19919;-84
2022/02/22 00:23:39;;;;;;;11.23;4.47;;;230.50;2252.80;;;;;;5032140;28;20568;-84
2022/02/22 00:26:05;;;;;;;7.22;3.70;;;230.60;2252.80;;;;;;5029847;28;20021;-83
2022/02/22 00:28:31;;;;;;;14.65;5.97;;;230.70;2252.80;;;;;;5032397;28;20018;-85
2022/02/22 00:30:57;;;;;;;15.65;6.68;;;230.70;2252.80;;;;;;5032988;28;20029;-81
2022/02/22 00:33:23;;;;;;;19.73;6.38;;;230.70;2252.80;;;;;;5028905;28;20032;-83
2022/02/22 00:35:49;;;;;;;;;;;230.70;2252.80;;;;;;5032541;28;20022;-83
2022/02/22 00:38:15;;;;;;;15.68;5.85;;;230.70;2252.80;;;;;;5025620;28;19909;-83
2022/02/22 00:40:41;;;;;;;6.97;4.25;;;230.60;2252.80;;;;;;5032616;28;20108;-82
2022/02/22 00:43:08;;;;;;;10.15;4.55;;;230.70;2252.80;;;;;;5021114;28;20071;-84
2022/02/22 00:45:35;;;;;;;16.20;7.57;;;230.70;2252.80;;;;;;5031116;28;20029;-81
2022/02/22 00:48:01;;;;;;;13.02;5.38;;;230.40;2252.80;;;;;;5031723;28;20036;-84
2022/02/22 00:50:28;;;;;;;8.68;4.30;;;205.70;2252.80;;;;;;5031921;28;20022;-82
2022/02/22 00:52:56;;;;;;;11.65;6.50;;;205.70;2252.80;;;;;;5027965;28;20036;-83
2022/02/22 00:55:23;;;;;;;12.35;6.32;;;230.40;2252.80;;;;;;5033193;28;20017;-83
2022/02/22 00:57:49;;;;;;;16.42;7.97;;;205.70;2252.80;;;;;;5028372;28;20021;-83
2022/02/22 01:00:15;;;;;;;11.68;5.65;;;230.40;2252.80;;;;;;5047587;28;20022;-81
2022/02/22 01:02:41;;;;;;;11.98;5.85;;;205.60;2252.80;;;;;;5031906;28;20049;-81
2022/02/22 01:05:07;;;;;;;10.80;5.60;;;205.50;2252.80;;;;;;5024008;28;20109;-81
2022/02/22 01:07:33;;;;;;;13.00;5.32;;;205.40;2252.80;;;;;;5041016;28;20060;-81
2022/02/22 01:09:59;;;;;;;;;;;205.60;2252.80;;;;;;5042979;28;20067;-81
2022/02/22 01:12:25;;;;;;;9.68;4.65;;;205.50;2252.80;;;;;;5043207;28;19905;-81
2022/02/22 01:14:50;;;;;;;;;;;205.50;2252.80;;;;;;5041570;28;20037;-84
2022/02/22 01:17:16;;;;;;;11.52;4.90;;;205.40;2252.80;;;;;;5043064;28;19931;-83
2022/02/22 01:19:42;;;;;;;;;;;205.50;2252.80;;;;;;5044129;28;20025;-85
2022/02/22 01:22:08;;;;;;;16.33;6.38;;;205.40;2252.80;;;;;;5041533;28;19920;-88
2022/02/22 01:24:34;;;;;;;13.93;6.35;;;205.50;2252.80;;;;;;5038423;28;20026;-91
2022/02/22 01:26:59;;;;;;;;;;;205.60;2252.80;;;;;;5044763;28;20033;-89
2022/02/22 01:29:26;;;;;;;12.25;4.75;;;205.60;2252.80;;;;;;5041995;28;19909;-84
2022/02/22 01:31:52;;;;;;;8.90;4.95;;;205.70;2252.80;;;;;;5046165;28;20029;-90
2022/02/22 01:34:18;;;;;;;10.60;5.55;;;230.40;2252.80;;;;;;5040227;28;20040;-83
2022/02/22 01:36:45;;;;;;;;;;;230.40;2252.80;;;;;;5041110;28;20139;-82
2022/02/22 01:39:12;;;;;;;8.20;3.90;;;230.40;2252.80;;;;;;5040206;28;19908;-83
2022/02/22 01:41:39;;;;;;;9.55;4.90;;;230.60;2252.80;;;;;;5042142;28;20043;-82
2022/02/22 01:44:05;;;;;;;15.40;7.80;;;230.70;2252.80;;;;;;5042896;28;20482;-84
2022/02/22 01:46:31;;;;;;;15.88;6.50;;;230.80;2252.80;;;;;;5043445;28;20050;-83
2022/02/22 01:48:57;;;;;;;;;;;230.90;2252.80;;;;;;5043682;28;20059;-88
2022/02/22 01:51:23;;;;;;;15.70;8.20;;;230.80;2252.80;;;;;;5042376;28;20369;-86
2022/02/22 01:53:48;;;;;;;;;;;230.90;2252.80;;;;;;5040969;28;20112;-84
2022/02/22 01:56:16;;;;;;;11.32;6.03;;;230.80;2252.80;;;;;;5043648;28;19905;-86
2022/02/22 01:58:42;;;;;;;11.27;6.13;;;230.90;2252.80;;;;;;5042187;28;20078;-86
2022/02/22 02:01:08;;;;;;;18.08;6.90;;;230.40;2252.80;;;;;;5043632;28;20140;-86
2022/02/22 02:03:34;;;;;;;14.77;7.35;;;205.60;2252.80;;;;;;5038911;28;20045;-83
2022/02/22 02:06:00;;;;;;;15.52;7.40;;;205.70;2252.80;;;;;;5043922;28;20057;-87
2022/02/22 02:08:26;;;;;;;;;;;205.60;2252.80;;;;;;5043810;28;20025;-81
2022/02/22 02:10:52;;;;;;;11.13;5.78;;;205.60;2252.80;;;;;;5044758;28;19909;-86
2022/02/22 02:13:17;;;;;;;;;;;205.40;2252.80;;;;;;5047029;28;20028;-85
2022/02/22 02:15:43;;;;;;;13.13;5.43;;;205.30;2252.80;;;;;;5045902;28;20020;-84
2022/02/22 02:18:09;;;;;;;;;;;205.20;2252.80;;;;;;5048007;28;20017;-85
2022/02/22 02:20:34;;;;;;;10.70;4.60;;;205.10;2252.80;;;;;;5046855;28;19912;-85
2022/02/22 02:23:00;;;;;;;;;;;204.90;2252.80;;;;;;5043969;28;20021;-85
2022/02/22 02:25:26;;;;;;;12.10;6.63;;;205.10;2252.80;;;;;;5045931;28;20259;-83
2022/02/22 02:27:51;;;;;;;;;;;205.20;2252.80;;;;;;5044943;28;20040;-83
2022/02/22 02:30:17;;;;;;;10.25;4.97;;;205.10;2252.80;;;;;;5041424;28;19909;-85
2022/02/22 02:32:44;;;;;;;9.82;5.25;;;205.10;2252.80;;;;;;5045783;28;20025;-82
2022/02/22 02:35:10;;;;;;;12.77;5.57;;;205.20;2252.80;;;;;;5044707;28;20021;-85
2022/02/22 02:37:41;;;;;;;10.45;5.63;;;205.20;2252.80;;;;;;5047807;28;20018;-83
2022/02/22 02:40:09;;;;;;;11.98;5.68;;;205.60;2252.80;;;;;;5047235;28;20076;-82
2022/02/22 02:42:43;;;;;;;14.68;6.68;;;230.40;2252.80;;;;;;5044264;28;20048;-81
2022/02/22 02:45:12;;;;;;;13.98;5.57;;;230.60;2252.80;;;;;;5044332;28;20024;-82
2022/02/22 02:47:38;;;;;;;16.90;6.82;;;230.70;2252.80;;;;;;5047057;28;20528;-86
2022/02/22 02:50:06;;;;;;;13.98;5.63;;;230.70;2252.80;;;;;;5046734;28;20025;-85
2022/02/22 02:52:32;;;;;;;10.85;4.82;;;230.70;2252.80;;;;;;5043695;28;20017;-82
2022/02/22 02:54:57;;;;;;;13.02;6.13;;;230.60;2252.80;;;;;;5046225;28;20032;-83
2022/02/22 02:57:23;;;;;;;;;;;230.60;2252.80;;;;;;5045057;28;20045;-81
2022/02/22 02:59:49;;;;;;;11.50;6.10;;;230.70;2252.80;;;;;;5044381;28;19909;-81
2022/02/22 03:02:15;;;;;;;;;;;230.40;2252.80;;;;;;5045835;28;20077;-83
2022/02/22 03:04:41;;;;;;;10.95;5.22;;;205.70;2252.80;;;;;;5043992;28;19904;-83
2022/02/22 03:07:07;;;;;;;;;;;205.50;2252.80;;;;;;5044328;28;20116;-82
2022/02/22 03:09:32;;;;;;;13.68;5.95;;;205.40;2252.80;;;;;;5045469;28;19909;-83
2022/02/22 03:11:58;;;;;;;;;;;205.40;2252.80;;;;;;5043798;28;20022;-81
2022/02/22 03:14:24;;;;;;;12.63;5.20;;;205.50;2252.80;;;;;;5044594;28;19928;-79
2022/02/22 03:16:49;;;;;;;;;;;205.60;2252.80;;;;;;5047128;28;20108;-81
2022/02/22 03:19:15;;;;;;;11.63;5.07;;;205.60;2252.80;;;;;;5042409;28;19952;-81
2022/02/22 03:21:41;;;;;;;;;;;205.60;2252.80;;;;;;5042932;28;20061;-81
2022/02/22 03:24:07;;;;;;;10.20;5.38;;;205.50;2252.80;;;;;;5044064;28;19905;-80
2022/02/22 03:26:33;;;;;;;18.83;7.00;;;205.70;2252.80;;;;;;5045171;28;20017;-79
2022/02/22 03:28:59;;;;;;;;;;;205.70;2252.80;;;;;;5044920;28;20029;-82
2022/02/22 03:31:27;;;;;;;14.40;6.50;;;205.70;2252.80;;;;;;5046739;28;19915;-83
2022/02/22 03:33:52;;;;;;;13.57;5.90;;;205.70;2252.80;;;;;;5041992;28;20052;-84
2022/02/22 03:36:21;;;;;;;11.93;5.90;;;205.50;2252.80;;;;;;5046904;28;20471;-82
2022/02/22 03:38:48;;;;;;;11.10;5.95;;;205.60;2252.80;;;;;;5043597;28;20028;-81
2022/02/22 03:41:16;;;;;;;13.80;6.30;;;205.50;2252.80;;;;;;5045201;28;20040;-82
2022/02/22 03:43:42;;;;;;;13.50;7.13;;;205.60;2252.80;;;;;;5039877;28;20035;-82
2022/02/22 03:46:08;;;;;;;11.48;6.38;;;205.60;2252.80;;;;;;5042269;28;20028;-83
2022/02/22 03:48:34;;;;;;;15.98;8.82;;;205.60;2252.80;;;;;;5045518;28;20108;-81
2022/02/22 03:50:59;;;;;;;;;;;205.40;2252.80;;;;;;5043424;28;20026;-83
2022/02/22 03:53:25;;;;;;;23.67;11.05;;;205.10;2252.80;;;;;;5045150;28;20393;-81
2022/02/22 03:55:50;;;;;;;;;;;205.10;2252.80;;;;;;5046029;28;20415;-83
2022/02/22 03:58:16;;;;;;;22.48;9.88;;;204.90;2252.80;;;;;;5042861;28;19948;-82
2022/02/22 04:00:42;;;;;;;;;;;180.00;2252.80;;;;;;5043177;28;20121;-85
2022/02/22 04:03:11;;;;;;;14.63;6.60;;;204.80;2252.80;;;;;;5045123;28;19921;-85
2022/02/22 04:05:38;;;;;;;11.32;6.00;;;205.00;2252.80;;;;;;5043858;28;20041;-83
2022/02/22 04:08:04;;;;;;;13.75;7.25;;;205.10;2252.80;;;;;;5044512;28;20033;-83
2022/02/22 04:10:30;;;;;;;;;;;205.20;2252.80;;;;;;5044359;28;20013;-84
2022/02/22 04:12:56;;;;;;;15.85;7.18;;;205.10;2252.80;;;;;;5042967;28;19912;-84
2022/02/22 04:15:21;;;;;;;;;;;205.10;2252.80;;;;;;5045498;28;20033;-82
2022/02/22 04:17:48;;;;;;;11.93;6.13;;;205.20;2252.80;;;;;;5044243;28;19909;-82
2022/02/22 04:20:14;;;;;;;11.70;7.00;;;205.00;2252.80;;;;;;5043150;28;20033;-81
2022/02/22 04:22:40;;;;;;;10.15;6.25;;;205.10;2252.80;;;;;;5044125;28;20539;-83
2022/02/22 04:25:06;;;;;;;;;;;205.20;2252.80;;;;;;5044196;28;20125;-81
2022/02/22 04:27:33;;;;;;;14.48;6.25;;;205.20;2252.80;;;;;;5044582;28;19996;-80
2022/02/22 04:29:59;;;;;;;13.85;6.60;;;205.30;2252.80;;;;;;5044701;28;20063;-81
2022/02/22 04:32:24;;;;;;;;;;;205.20;2252.80;;;;;;5041743;28;20025;-81
2022/02/22 04:34:50;;;;;;;10.48;6.03;;;205.40;2252.80;;;;;;5041099;28;19967;-81
2022/02/22 04:37:17;;;;;;;10.13;5.60;;;205.40;2252.80;;;;;;5041707;28;20032;-81
2022/02/22 04:39:50;;;;;;;14.85;7.32;;;205.40;2252.80;;;;;;5043631;28;20056;-81
2022/02/22 04:42:16;;;;;;;10.73;6.38;;;205.40;2252.80;;;;;;5044576;28;20112;-81
2022/02/22 04:44:43;;;;;;;11.55;6.32;;;205.30;2252.80;;;;;;5042026;28;20521;-82
2022/02/22 04:47:10;;;;;;;12.25;5.35;;;205.20;2252.80;;;;;;5044210;28;20048;-82
2022/02/22 04:49:36;;;;;;;11.35;6.07;;;205.30;2252.80;;;;;;5043531;28;20071;-82
2022/02/22 04:52:03;;;;;;;;;;;205.10;2252.80;;;;;;5041485;28;20116;-82
2022/02/22 04:54:30;;;;;;;11.70;5.05;;;205.20;2252.80;;;;;;5042774;28;20413;-80
2022/02/22 04:56:56;;;;;;;9.88;5.07;;;205.60;2252.80;;;;;;5038408;28;20394;-82
2022/02/22 04:59:22;;;;;;;;;;;205.30;2252.80;;;;;;5043844;28;20021;-80
2022/02/22 05:01:47;;;;;;;7.50;4.50;;;205.20;2252.80;;;;;;5041241;28;19923;-82
2022/02/22 05:04:13;;;;;;;;;;;205.20;2252.80;;;;;;5042836;28;20541;-82
2022/02/22 05:06:39;;;;;;;10.73;4.85;;;205.10;2252.80;;;;;;5043132;28;19905;-82
2022/02/22 05:09:04;;;;;;;;;;;205.20;2252.80;;;;;;5041458;28;20422;-82
2022/02/22 05:11:30;;;;;;;7.95;4.10;;;205.20;2252.80;;;;;;5042346;28;19955;-82
2022/02/22 05:13:56;;;;;;;;;;;205.10;2252.80;;;;;;5042588;28;20037;-82
2022/02/22 05:16:22;;;;;;;11.70;4.43;;;205.00;2252.80;;;;;;5043424;28;19999;-84
2022/02/22 05:18:47;;;;;;;;;;;205.00;2252.80;;;;;;5042145;28;20105;-84
2022/02/22 05:21:13;;;;;;;11.85;4.93;;;205.00;2252.80;;;;;;5043602;28;19917;-84
2022/02/22 05:23:39;;;;;;;;;;;205.00;2252.80;;;;;;5042308;28;20044;-84
2022/02/22 05:26:09;;;;;;;8.23;3.58;;;205.00;2252.80;;;;;;5044590;28;19905;-82
2022/02/22 05:28:35;;;;;;;6.18;3.60;;;205.00;2252.80;;;;;;5042724;28;20048;-82
2022/02/22 05:31:01;;;;;;;7.93;4.15;;;205.00;2252.80;;;;;;5044132;28;20021;-83
2022/02/22 05:33:26;;;;;;;;;;;204.90;2252.80;;;;;;5039022;28;20437;-81
2022/02/22 05:35:53;;;;;;;10.73;4.28;;;204.90;2252.80;;;;;;5040708;28;20481;-79
2022/02/22 05:38:20;;;;;;;8.52;4.65;;;204.90;2252.80;;;;;;5041890;28;20028;-83
2022/02/22 05:40:46;;;;;;;9.63;5.00;;;204.80;2252.80;;;;;;5043802;28;20037;-79
2022/02/22 05:43:12;;;;;;;12.10;6.07;;;204.80;2252.80;;;;;;5042025;28;20108;-82
2022/02/22 05:45:38;;;;;;;;;;;204.80;2252.80;;;;;;5049308;28;20112;-82
2022/02/22 05:48:04;;;;;;;13.93;6.18;;;204.80;2252.80;;;;;;5044413;28;19944;-79
2022/02/22 05:50:31;;;;;;;10.05;5.65;;;204.80;2252.80;;;;;;5044948;28;20025;-79
2022/02/22 05:52:57;;;;;;;12.77;6.00;;;204.80;2252.80;;;;;;5044410;28;20072;-81
2022/02/22 05:55:27;;;;;;;16.33;6.28;;;204.90;2252.80;;;;;;5047772;28;20040;-81
2022/02/22 05:57:53;;;;;;;14.27;5.68;;;204.90;2252.80;;;;;;5045768;28;20036;-80
2022/02/22 06:00:19;;;;;;;16.13;6.55;;;204.90;2252.80;;;;;;5046784;28;20051;-81
2022/02/22 06:02:46;;;;;;;12.70;5.50;;;204.80;2252.80;;;;;;5046840;28;20054;-79
2022/02/22 06:05:12;;;;;;;11.07;5.50;;;204.80;2252.80;;;;;;5042979;28;20022;-80
2022/02/22 06:07:38;;;;;;;;;;;204.90;2252.80;;;;;;5044577;28;20482;-80
2022/02/22 06:10:05;;;;;;;12.02;5.40;;;204.90;2252.80;;;;;;5044868;28;19909;-78
2022/02/22 06:12:30;;;;;;;14.32;6.50;;;204.90;2252.80;;;;;;5046471;28;20021;-84
2022/02/22 06:14:56;;;;;;;;;;;205.00;2252.80;;;;;;5044678;28;20120;-77
2022/02/22 06:17:22;;;;;;;14.48;6.68;;;205.00;2252.80;;;;;;5046384;28;20369;-79
2022/02/22 06:19:48;;;;;;;12.27;7.00;;;204.80;2252.80;;;;;;5041950;28;20018;-79
2022/02/22 06:22:14;;;;;;;15.32;7.10;;;204.90;2252.80;;;;;;5046337;28;20025;-78
2022/02/22 06:24:40;;;;;;;;;;;204.80;2252.80;;;;;;5047191;28;20489;-84
2022/02/22 06:27:06;;;;;;;20.25;7.90;;;204.90;2252.80;;;;;;5045739;28;19922;-89
2022/02/22 06:29:32;;;;;;;;;;;204.90;2252.80;;;;;;5044991;28;20033;-79
2022/02/22 06:31:58;;;;;;;19.70;6.72;;;180.00;2252.80;;;;;;5044811;28;20375;-89
2022/02/22 06:34:24;;;;;;;11.73;6.18;;;179.90;2252.80;;;;;;5041636;28;20050;-80
2022/02/22 06:36:49;;;;;;;;;;;179.80;2252.80;;;;;;5034043;28;20052;-79
2022/02/22 06:39:15;;;;;;;11.48;6.45;;;179.90;2252.80;;;;;;5035679;28;19905;-80
2022/02/22 06:41:41;;;;;;;;;;;179.80;2252.80;;;;;;5036633;28;20079;-79
2022/02/22 06:44:07;;;;;;;23.73;10.63;;;179.90;2252.80;;;;;;5035143;28;19909;-75
2022/02/22 06:46:32;;;;;;;;;;;180.00;2252.80;;;;;;5035795;28;20040;-81
2022/02/22 06:48:58;;;;;;;48.70;19.33;;;179.80;2252.80;;;;;;5035253;28;19932;-80
2022/02/22 06:51:24;;;;;;;;;;;180.00;2252.80;;;;;;5036018;28;20033;-79
2022/02/22 06:53:49;;;;;;;27.25;13.98;;;179.90;2252.80;;;;;;5035459;28;20394;-80
2022/02/22 06:56:15;;;;;;;;;;;180.00;2252.80;;;;;;5035085;28;20036;-81
2022/02/22 06:58:41;;;;;;;57.15;23.88;;;179.90;2252.80;;;;;;5035636;28;19905;-77
2022/02/22 07:01:06;;;;;;;;;;;180.10;2252.80;;;;;;5035910;28;20372;-80
2022/02/22 07:03:32;;;;;;;47.80;25.67;;;204.80;2252.80;;;;;;5035881;28;19928;-80
2022/02/22 07:05:58;;;;;;;;;;;180.10;2252.80;;;;;;5033910;28;20029;-75
2022/02/22 07:08:23;;;;;;;18.35;9.05;;;180.10;2252.80;;;;;;5035901;28;20366;-76
2022/02/22 07:10:49;;;;;;;;;;;180.00;2252.80;;;;;;5035428;28;20022;-80
2022/02/22 07:13:15;;;;;;;15.10;7.95;;;204.80;2252.80;;;;;;5035359;28;19905;-78
2022/02/22 07:15:41;;;;;;;;;;;204.80;2252.80;;;;;;5036579;28;20099;-78
2022/02/22 07:18:09;;;;;;;17.27;7.97;;;180.10;2252.80;;;;;;5016401;28;20351;-76
2022/02/22 07:20:35;;;;;;;18.08;10.25;;;204.80;2252.80;;;;;;5029484;28;20037;-80
2022/02/22 07:23:02;;;;;;;21.85;8.70;;;204.90;2252.80;;;;;;5031628;28;20053;-81
2022/02/22 07:25:29;;;;;;;23.55;9.85;;;180.10;2252.80;;;;;;5034704;28;20479;-80
2022/02/22 07:27:57;;;;;;;17.10;9.05;;;204.90;2252.80;;;;;;5044060;28;20108;-80
2022/02/22 07:30:23;;;;;;;21.20;8.95;;;205.00;2252.80;;;;;;5054600;28;20029;-81
2022/02/22 07:32:54;;;;;;;19.73;10.15;;;205.10;2252.80;;;;;;5054496;28;20121;-80
2022/02/22 07:35:20;;;;;;;20.00;8.48;;;205.10;2252.80;;;;;;5052067;28;20032;-81
2022/02/22 07:37:45;;;;;;;;;;;205.10;2252.80;;;;;;5044354;28;20029;-81
2022/02/22 07:40:14;;;;;;;14.07;6.15;;;205.00;2252.80;;;;;;5042415;28;19913;-78
2022/02/22 07:42:40;;;;;;;11.90;5.85;;;205.10;2252.80;;;;;;5045113;28;20036;-82
2022/02/22 07:45:07;;;;;;;9.68;5.45;;;205.20;2252.80;;;;;;5044253;28;20505;-89
2022/02/22 07:47:33;;;;;;;16.23;6.80;;;205.20;2252.80;;;;;;5051557;28;20036;-81
2022/02/22 07:49:59;;;;;;;;;;;205.30;2252.80;;;;;;5054767;28;20052;-80
2022/02/22 07:52:28;;;;;;;20.40;8.75;;;205.30;2252.80;;;;;;5054147;28;19905;-82
2022/02/22 07:54:55;;;;;;;18.20;7.85;;;205.30;2252.80;;;;;;5054338;28;20083;-82
2022/02/22 07:57:21;;;;;;;15.98;7.95;;;205.40;2252.80;;;;;;5054238;28;20071;-81
2022/02/22 07:59:47;;;;;;;20.17;8.70;;;205.40;2252.80;;;;;;5053729;28;20424;-82
2022/02/22 08:02:13;;;;;;;13.95;5.75;;;205.40;2252.80;;;;;;5054140;28;20057;-81
2022/02/22 08:04:40;;;;;;;;;;;205.50;2252.80;;;;;;5054600;28;20025;-88
2022/02/22 08:07:07;;;;;;;;;;;205.60;2252.80;;;;;;5053091;28;19911;-80
2022/02/22 08:09:33;;;;;;;12.35;5.20;;;205.30;2252.80;;;;;;5053305;28;19963;-83
2022/02/22 08:11:58;;;;;;;;;;;205.30;2252.80;;;;;;5055848;28;20355;-82
2022/02/22 08:14:24;;;;;;;11.40;4.20;;;205.50;2252.80;;;;;;5052724;28;19904;-79
2022/02/22 08:16:59;;;;;;;;;;;205.40;2252.80;;;;;;5054100;28;20044;-78
2022/02/22 08:19:26;;;;;;;8.65;4.22;;;205.60;2252.80;;;;;;5053333;28;19958;-78
2022/02/22 08:21:52;;;;;;;10.65;5.78;;;205.70;2252.80;;;;;;5054659;28;20501;-78
2022/02/22 08:24:18;;;;;;;10.82;5.35;;;230.40;2252.80;;;;;;5054576;28;20025;-78
2022/02/22 08:26:44;;;;;;;7.65;4.35;;;230.40;2252.80;;;;;;5053347;28;20040;-78
2022/02/22 08:29:09;;;;;;;;;;;230.50;2252.80;;;;;;5055033;28;20032;-78
2022/02/22 08:31:35;;;;;;;9.07;4.88;;;205.70;2252.80;;;;;;5053358;28;20293;-79
2022/02/22 08:34:02;;;;;;;;;;;230.60;2252.80;;;;;;5046481;28;20033;-79
2022/02/22 08:36:28;;;;;;;;;;;230.60;2252.80;;;;;;5039885;28;19923;-82
2022/02/22 08:38:54;;;;;;;8.82;3.97;;;230.80;2252.80;;;;;;5054492;28;19909;-79
2022/02/22 08:41:20;;;;;;;15.75;6.38;;;230.70;2252.80;;;;;;5049679;28;20121;-78
2022/02/22 08:43:46;;;;;;;8.60;4.63;;;230.90;2252.80;;;;;;5047326;28;20398;-78
2022/02/22 08:46:12;;;;;;;10.68;5.00;;;230.90;2252.80;;;;;;5041823;28;20105;-79
2022/02/22 08:48:37;;;;;;;;;;;230.90;2252.80;;;;;;5042845;28;20048;-80
2022/02/22 08:51:03;;;;;;;8.88;4.63;;;231.10;2252.80;;;;;;5047298;28;19915;-80
2022/02/22 08:53:29;;;;;;;;;;;231.00;2252.80;;;;;;5055030;28;20025;-79
2022/02/22 08:55:55;;;;;;;6.47;3.67;;;231.00;2252.80;;;;;;5054203;28;19905;-79
2022/02/22 08:58:20;;;;;;;;;;;230.90;2252.80;;;;;;5054089;28;20497;-80
2022/02/22 09:00:46;;;;;;;10.45;3.97;;;230.90;2252.80;;;;;;5052450;28;20011;-78
2022/02/22 09:03:12;;;;;;;;;;;230.90;2252.80;;;;;;5053007;28;20049;-80
2022/02/22 09:05:38;;;;;;;10.25;4.50;;;231.00;2252.80;;;;;;5052608;28;20415;-80
2022/02/22 09:08:04;;;;;;;;;;;231.10;2252.80;;;;;;5054690;28;20028;-79
2022/02/22 09:10:30;;;;;;;12.07;5.43;;;231.20;2252.80;;;;;;5052053;28;19904;-82
2022/02/22 09:12:56;;;;;;;;;;;231.20;2252.80;;;;;;5053783;28;20490;-79
2022/02/22 09:15:23;;;;;;;7.68;3.95;;;231.10;2252.80;;;;;;5052943;28;19905;-79
2022/02/22 09:17:49;;;;;;;8.77;4.45;;;231.10;2252.80;;;;;;5052820;28;20467;-80
2022/02/22 09:20:19;;;;;;;8.45;3.50;;;231.30;2252.80;;;;;;5052836;28;20033;-79
2022/02/22 09:22:46;;;;;;;8.80;4.20;;;231.30;2252.80;;;;;;5052731;28;20024;-80
2022/02/22 09:25:14;;;;;;;12.95;5.03;;;231.20;2252.80;;;;;;5043970;28;20022;-83
2022/02/22 09:27:42;;;;;;;12.43;5.68;;;231.10;2252.80;;;;;;5040631;28;20032;-80
2022/02/22 09:30:09;;;;;;;7.65;4.05;;;231.30;2252.80;;;;;;5043177;28;20033;-77
2022/02/22 09:32:35;;;;;;;9.55;4.65;;;256.20;2252.80;;;;;;5044196;28;20033;-80
2022/02/22 09:35:01;;;;;;;10.95;4.43;;;256.10;2252.80;;;;;;5041672;28;20033;-84
2022/02/22 09:37:26;;;;;;;;;;;256.00;2252.80;;;;;;5053137;28;20025;-81
2022/02/22 09:39:52;;;;;;;14.15;6.30;;;256.00;2252.80;;;;;;5052880;28;19958;-86
2022/02/22 09:42:18;;;;;;;10.55;6.10;;;256.10;2252.80;;;;;;5053768;28;20025;-84
2022/02/22 09:44:44;;;;;;;8.43;4.68;;;256.30;2252.80;;;;;;5043903;28;20025;-87
2022/02/22 09:47:09;;;;;;;;;;;256.40;2252.80;;;;;;5040821;28;20040;-80
2022/02/22 09:49:36;;;;;;;8.88;4.32;;;256.70;2252.80;;;;;;5041037;28;20309;-79
2022/02/22 09:52:02;;;;;;;9.63;4.30;;;256.80;2252.80;;;;;;5037448;28;20034;-79
2022/02/22 09:54:28;;;;;;;8.07;3.97;;;281.60;2278.40;;;;;;5033790;28;20022;-79
2022/02/22 09:56:57;;;;;;;7.70;3.70;;;281.70;2278.40;;;;;;5032460;28;20463;-79
2022/02/22 09:59:24;;;;;;;10.68;3.47;;;256.70;2252.80;;;;;;5032266;28;20216;-79
2022/02/22 10:01:55;;;;;;;6.20;3.28;;;256.50;2252.80;;;;;;5032091;28;20052;-79
2022/02/22 10:04:22;;;;;;;7.30;4.00;;;256.60;2252.80;;;;;;5032391;28;20022;-80
2022/02/22 10:06:52;;;;;;;7.50;3.35;;;281.60;2278.40;;;;;;5032338;28;20036;-85
2022/02/22 10:09:19;;;;;;;7.13;3.50;;;281.60;2278.40;;;;;;5032200;28;20033;-81
2022/02/22 10:11:48;;;;;;;19.23;10.00;;;256.90;2252.80;;;;;;5032633;28;20022;-84
2022/02/22 10:14:29;;;;;;;6.45;3.47;;;281.80;2278.40;;;;;;5033003;28;20116;-81
2022/02/22 10:16:57;;;;;;;7.68;3.35;;;281.60;2278.40;;;;;;5032642;28;20033;-81
2022/02/22 10:19:34;;;;;;;5.55;3.60;;;256.70;2252.80;;;;;;5032442;28;20021;-80
2022/02/22 10:22:00;;;;;;;6.97;3.55;;;256.70;2252.80;;;;;;5032672;28;20030;-84
2022/02/22 10:24:29;;;;;;;7.88;3.78;;;256.90;2252.80;;;;;;5032242;28;20032;-80
2022/02/22 10:27:07;;;;;;;8.52;4.68;;;282.00;2278.40;;;;;;5031824;28;20045;-82
2022/02/22 10:29:35;;;;;;;6.00;3.35;;;282.00;2278.40;;;;;;5032311;28;20036;-80
2022/02/22 10:32:15;;;;;;;7.82;3.63;;;281.80;2278.40;;;;;;5035779;28;20167;-83
2022/02/22 10:34:41;;;;;;;7.25;4.72;;;281.60;2278.40;;;;;;5035644;28;20055;-80
2022/02/22 10:37:07;;;;;;;6.55;4.25;;;281.70;2278.40;;;;;;5035697;28;20021;-81
2022/02/22 10:39:33;;;;;;;;;;;281.70;2278.40;;;;;;5036148;28;20498;-79
2022/02/22 10:41:59;;;;;;;4.60;2.95;;;281.70;2278.40;;;;;;5035487;28;19913;-80
2022/02/22 10:44:32;;;;;;;7.63;4.50;;;281.80;2278.40;;;;;;5034982;28;20052;-78
2022/02/22 10:46:59;;;;;;;7.55;4.40;;;281.70;2278.40;;;;;;5035406;28;20025;-82
2022/02/22 10:49:30;;;;;;;4.90;3.00;;;281.90;2278.40;;;;;;5043549;28;20035;-83
2022/02/22 10:52:03;;;;;;;9.18;4.25;;;282.20;2278.40;;;;;;5041468;28;20082;-83
2022/02/22 10:54:29;;;;;;;7.53;3.95;;;307.30;2304.00;;;;;;5046207;28;20029;-81
2022/02/22 10:56:55;;;;;;;7.57;3.63;;;307.50;2304.00;;;;;;5047951;28;20036;-82
2022/02/22 10:59:23;;;;;;;6.68;3.33;;;307.60;2304.00;;;;;;5030443;28;20027;-84
2022/02/22 11:01:50;;;;;;;5.80;2.88;;;307.40;2304.00;;;;;;5044054;28;20033;-82
2022/02/22 11:04:16;;;;;;;7.78;3.10;;;282.50;2278.40;;;;;;5044565;28;20137;-85
2022/02/22 11:06:42;;;;;;;6.78;3.15;;;282.50;2278.40;;;;;;5045416;28;20029;-80
2022/02/22 11:09:08;;;;;;;6.45;3.15;;;282.00;2278.40;;;;;;5045549;28;20359;-84
2022/02/22 11:11:43;;;;;;;25.17;4.82;;;282.20;2278.40;;;;;;5052809;28;20039;-81
2022/02/22 11:14:09;;;;;;;11.40;5.00;;;307.20;2304.00;;;;;;5055119;28;20029;-84
2022/02/22 11:16:45;;;;;;;7.47;3.05;;;307.90;2252.80;;;;;;5054911;28;20089;-79
2022/02/22 11:19:16;;;;;;;5.45;3.30;;;307.90;2278.40;;;;;;5054977;28;20025;-89
2022/02/22 11:21:43;;;;;;;10.02;3.28;;;307.40;2304.00;;;;;;5054463;28;20033;-82
2022/02/22 11:24:10;;;;;;;6.38;3.65;;;307.40;2304.00;;;;;;5055125;28;20028;-85
2022/02/22 11:26:59;;;;;;;5.35;2.65;;;282.50;2278.40;;;;;;5054734;28;20025;-81
2022/02/22 11:29:27;;;;;;;5.15;3.05;;;307.50;2201.60;;;;;;5055029;28;20029;-88
2022/02/22 11:32:01;;;;;;;6.72;3.35;;;308.00;2150.40;;;;;;5054799;28;20025;-90
2022/02/22 11:34:31;;;;;;;5.03;2.60;;;307.60;2252.80;;;;;;5054537;28;20117;-82
2022/02/22 11:36:59;;;;;;;7.03;3.25;;;307.20;2227.20;;;;;;5054622;28;20075;-82
2022/02/22 11:39:25;;;;;;;4.40;2.92;;;307.50;2227.20;;;;;;5055632;28;20021;-82
2022/02/22 11:41:51;;;;;;;4.63;2.38;;;307.90;2176.00;;;;;;5054956;28;20037;-83
2022/02/22 11:44:23;;;;;;;5.20;3.22;;;307.50;2201.60;;;;;;5053809;28;20544;-85
2022/02/22 11:46:52;;;;;;;6.43;3.60;;;307.40;2252.80;;;;;;5054471;28;20025;-84
2022/02/22 11:49:27;;;;;;;5.35;3.08;;;332.90;2252.80;;;;;;5054470;28;20025;-79
2022/02/22 11:52:00;;;;;;;5.88;3.13;;;333.00;2099.20;;;;;;5050992;28;20025;-79
2022/02/22 11:54:26;;;;;;;6.38;3.30;;;332.90;2073.60;;;;;;5022329;28;20038;-81
2022/02/22 11:57:14;;;;;;;7.20;2.88;;;307.70;2124.80;;;;;;5044786;28;20020;-79
2022/02/22 11:59:56;;;;;;;12.65;6.65;;;307.20;2176.00;;;;;;5043836;28;20373;-83
2022/02/22 12:02:30;;;;;;;6.65;3.63;;;307.30;2252.80;;;;;;5035815;28;20133;-83
2022/02/22 12:04:56;;;;;;;6.82;3.58;;;307.50;2227.20;;;;;;5043563;28;20123;-84
2022/02/22 12:07:29;;;;;;;6.63;3.35;;;307.30;2227.20;;;;;;5039746;28;20037;-82
2022/02/22 12:09:57;;;;;;;6.82;3.35;;;307.20;2252.80;;;;;;5035331;28;20046;-82
2022/02/22 12:12:24;;;;;;;6.57;3.22;;;307.30;2201.60;;;;;;5042110;28;20116;-84
2022/02/22 12:14:52;;;;;;;8.30;3.47;;;282.40;2176.00;;;;;;5039749;28;20025;-83
2022/02/22 12:17:17;;;;;;;6.00;3.28;;;307.50;2176.00;;;;;;5045258;28;20013;-83
2022/02/22 12:19:50;;;;;;;6.88;3.42;;;307.60;2176.00;;;;;;5042479;28;20028;-82
2022/02/22 12:22:25;;;;;;;8.93;3.75;;;307.50;2227.20;;;;;;5039571;28;20040;-85
2022/02/22 12:25:03;;;;;;;5.63;2.72;;;307.40;2227.20;;;;;;5042778;28;20026;-85
2022/02/22 12:27:30;;;;;;;8.32;3.60;;;282.50;2176.00;;;;;;5038552;28;20028;-85
2022/02/22 12:29:57;;;;;;;6.40;3.72;;;282.50;2201.60;;;;;;5044239;28;20021;-87